createdAt,value
2022-08-19T00:00:36.276Z,99818.44
2022-08-19T00:01:38.022Z,99818.88
2022-08-19T00:02:36.307Z,99821.7
2022-08-19T00:03:35.557Z,99816.88
2022-08-19T00:04:36.243Z,99822.89
2022-08-19T00:05:35.623Z,99823.84
2022-08-19T00:06:36.645Z,99824.5
2022-08-19T00:07:35.504Z,99822.78
2022-08-19T00:08:35.466Z,99825.73
2022-08-19T00:09:35.707Z,99826.2
2022-08-19T00:10:35.535Z,99827.35
2022-08-19T00:11:35.647Z,99824.13
2022-08-19T00:12:35.536Z,99830.62
2022-08-19T00:13:38.556Z,99829.67
2022-08-19T00:14:39.123Z,99828.52
2022-08-19T00:15:38.542Z,99826.11
2022-08-19T00:16:39.492Z,99828.23
2022-08-19T00:17:41.999Z,99825.97
2022-08-19T00:18:38.555Z,99822.86
2022-08-19T00:19:39.075Z,99821.16
2022-08-19T00:20:38.699Z,99821.14
2022-08-19T00:21:38.738Z,99822.69
2022-08-19T00:22:39.364Z,99823.16
2022-08-19T00:23:38.800Z,99821.43
2022-08-19T00:24:38.823Z,99822.33
2022-08-19T00:25:39.060Z,99820.82
2022-08-19T00:26:39.054Z,99817.52
2022-08-19T00:27:39.204Z,99818.72
2022-08-19T00:28:38.826Z,99818.01
2022-08-19T00:29:39.051Z,99816.05
2022-08-19T00:30:38.912Z,99816.22
2022-08-19T00:31:39.507Z,99814.98
2022-08-19T00:32:39.466Z,99816.45
2022-08-19T00:33:39.021Z,99815.41
2022-08-19T00:34:38.958Z,99817.2
2022-08-19T00:35:38.942Z,99819.16
2022-08-19T00:36:39.524Z,99816.24
2022-08-19T00:37:39.156Z,99815.45
2022-08-19T00:38:40.237Z,99812.58
2022-08-19T00:39:39.172Z,99812.5
2022-08-19T00:40:39.104Z,99811.84
2022-08-19T00:41:39.600Z,99810.72
2022-08-19T00:42:39.074Z,99808.69
2022-08-19T00:43:39.195Z,99805.91
2022-08-19T00:44:39.153Z,99808.38
2022-08-19T00:45:39.401Z,99807.79
2022-08-19T00:46:40.297Z,99806.16
2022-08-19T00:47:39.220Z,99813.4
2022-08-19T00:48:39.030Z,99810.36
2022-08-19T00:49:44.321Z,99809
2022-08-19T00:50:52.089Z,99808.34
2022-08-19T00:51:45.720Z,99810.41
2022-08-19T00:52:46.013Z,99813.13
2022-08-19T00:53:43.988Z,99808.87
2022-08-19T00:54:47.829Z,99813.44
2022-08-19T00:55:48.435Z,99811.53
2022-08-19T00:56:48.848Z,99812.13
2022-08-19T00:57:52.553Z,99812.57
2022-08-19T00:58:49.423Z,99812.13
2022-08-19T01:00:01.154Z,99810.12
2022-08-19T01:00:54.377Z,99813.66
2022-08-19T01:01:54.622Z,99813.69
2022-08-19T01:02:54.724Z,99811.62
2022-08-19T01:03:57.541Z,99810.92
2022-08-19T01:04:55.057Z,99812.16
2022-08-19T01:05:55.119Z,99811.98
2022-08-19T01:06:55.040Z,99811.88
2022-08-19T01:07:56.066Z,99813.59
2022-08-19T01:08:55.688Z,99808.89
2022-08-19T01:09:55.162Z,99810.56
2022-08-19T01:10:56.220Z,99814.38
2022-08-19T01:11:55.248Z,99810.7
2022-08-19T01:12:55.583Z,99813.24
2022-08-19T01:13:55.063Z,99807.95
2022-08-19T01:14:56.485Z,99811.16
2022-08-19T01:15:57.465Z,99816.05
2022-08-19T01:16:56.057Z,99810.51
2022-08-19T01:17:56.230Z,99811.78
2022-08-19T01:18:55.133Z,99808.28
2022-08-19T01:19:55.143Z,99810.25
2022-08-19T01:20:57.185Z,99810.64
2022-08-19T01:23:00.259Z,99806.88
2022-08-19T01:24:00.242Z,99804.51
2022-08-19T01:25:00.303Z,99803.27
2022-08-19T01:26:00.241Z,99806.84
2022-08-19T01:27:00.246Z,99806.87
2022-08-19T01:28:09.861Z,99806.41
2022-08-19T01:29:02.617Z,99808.03
2022-08-19T01:30:02.613Z,99810.31
2022-08-19T01:31:07.076Z,99808.36
2022-08-19T01:32:04.941Z,99805.2
2022-08-19T01:33:04.860Z,99806.39
2022-08-19T01:34:05.350Z,99806.42
2022-08-19T01:35:05.397Z,99805.84
2022-08-19T01:36:09.468Z,99811.98
2022-08-19T01:37:10.294Z,99805.33
2022-08-19T01:38:08.195Z,99808.11
2022-08-19T01:39:09.851Z,99808.21
2022-08-19T01:40:09.442Z,99809.05
2022-08-19T01:41:10.881Z,99806.75
2022-08-19T01:42:08.950Z,99804.81
2022-08-19T01:43:07.749Z,99803.05
2022-08-19T01:44:17.526Z,99806.25
2022-08-19T01:45:11.376Z,99806.42
2022-08-19T01:46:11.058Z,99805.67
2022-08-19T01:47:10.835Z,99806.7
2022-08-19T01:48:10.991Z,99806.79
2022-08-19T01:49:10.895Z,99805.41
2022-08-19T01:50:11.964Z,99805.58
2022-08-19T01:51:11.526Z,99805.14
2022-08-19T01:52:10.934Z,99807.62
2022-08-19T01:53:11.562Z,99806.53
2022-08-19T01:54:12.892Z,99805.96
2022-08-19T01:55:13.191Z,99809.34
2022-08-19T01:56:11.036Z,99807.47
2022-08-19T01:57:13.475Z,99808.45
2022-08-19T01:58:13.154Z,99808.11
2022-08-19T01:59:15.342Z,99810.66
2022-08-19T02:00:13.569Z,99813.56
2022-08-19T02:01:11.938Z,99810.75
2022-08-19T02:02:11.841Z,99810.12
2022-08-19T02:03:12.062Z,99815.09
2022-08-19T02:04:12.151Z,99817.98
2022-08-19T02:05:12.562Z,99817.8
2022-08-19T02:06:11.896Z,99816.41
2022-08-19T02:07:11.880Z,99818.55
2022-08-19T02:08:12.417Z,99820.09
2022-08-19T02:09:12.010Z,99820.46
2022-08-19T02:10:14.066Z,99823.46
2022-08-19T02:11:19.451Z,99823.14
2022-08-19T02:12:15.971Z,99821.65
2022-08-19T02:13:16.017Z,99824.59
2022-08-19T02:14:17.685Z,99825.22
2022-08-19T02:15:18.629Z,99826.17
2022-08-19T02:16:18.421Z,99825.55
2022-08-19T02:17:17.650Z,99827.22
2022-08-19T02:18:18.078Z,99831.06
2022-08-19T02:19:17.795Z,99830.49
2022-08-19T02:20:17.970Z,99832.54
2022-08-19T02:21:18.637Z,99833.12
2022-08-19T02:22:17.887Z,99834.21
2022-08-19T02:23:17.887Z,99837.66
2022-08-19T02:24:17.962Z,99836.06
2022-08-19T02:25:17.979Z,99840.8
2022-08-19T02:26:18.256Z,99839.3
2022-08-19T02:27:17.950Z,99838.03
2022-08-19T02:28:18.915Z,99836.39
2022-08-19T02:29:17.866Z,99837.09
2022-08-19T02:30:18.515Z,99837.52
2022-08-19T02:31:20.293Z,99835.39
2022-08-19T02:32:18.473Z,99835.77
2022-08-19T02:33:17.977Z,99832.95
2022-08-19T02:34:18.379Z,99834.77
2022-08-19T02:35:18.181Z,99835.91
2022-08-19T02:36:20.562Z,99834.79
2022-08-19T02:37:17.978Z,99833.59
2022-08-19T02:38:18.045Z,99833.55
2022-08-19T02:39:18.135Z,99833.89
2022-08-19T02:40:18.133Z,99834.73
2022-08-19T02:41:19.578Z,99831.8
2022-08-19T02:42:18.074Z,99835.26
2022-08-19T02:43:18.114Z,99836.52
2022-08-19T02:44:29.554Z,99834.09
2022-08-19T02:45:23.089Z,99832
2022-08-19T02:46:24.872Z,99833.88
2022-08-19T02:47:23.086Z,99836.86
2022-08-19T02:48:24.172Z,99837.16
2022-08-19T02:49:23.186Z,99831.85
2022-08-19T02:50:23.060Z,99834.77
2022-08-19T02:51:25.015Z,99835.31
2022-08-19T02:52:23.134Z,99840.41
2022-08-19T02:53:24.113Z,99838.67
2022-08-19T02:54:23.337Z,99837.06
2022-08-19T02:55:23.053Z,99836.86
2022-08-19T02:56:23.450Z,99837.17
2022-08-19T02:57:23.125Z,99844.04
2022-08-19T02:58:23.253Z,99840.94
2022-08-19T02:59:23.281Z,99843.67
2022-08-19T03:00:23.443Z,99844.49
2022-08-19T03:01:24.736Z,99844.91
2022-08-19T03:02:23.335Z,99847.06
2022-08-19T03:03:23.450Z,99846.52
2022-08-19T03:04:23.529Z,99846.38
2022-08-19T03:05:30.524Z,99849.77
2022-08-19T03:06:24.860Z,99853.02
2022-08-19T03:07:24.643Z,99850.1
2022-08-19T03:08:25.631Z,99850.03
2022-08-19T03:09:24.759Z,99856.83
2022-08-19T03:10:24.872Z,99858.38
2022-08-19T03:12:26.370Z,99858.22
2022-08-19T03:13:26.104Z,99856.62
2022-08-19T03:14:26.042Z,99860.13
2022-08-19T03:15:26.225Z,99862.08
2022-08-19T03:16:27.570Z,99863.15
2022-08-19T03:17:25.968Z,99859.77
2022-08-19T03:18:26.040Z,99863.25
2022-08-19T03:19:26.278Z,99866.77
2022-08-19T03:20:26.109Z,99867
2022-08-19T03:21:26.808Z,99863.25
2022-08-19T03:22:26.147Z,99869.57
2022-08-19T03:23:26.140Z,99871.66
2022-08-19T03:24:26.173Z,99869.8
2022-08-19T03:25:26.402Z,99873.8
2022-08-19T03:26:26.724Z,99873.91
2022-08-19T03:27:30.075Z,99875.27
2022-08-19T03:28:26.294Z,99875.59
2022-08-19T03:29:30.783Z,99875.1
2022-08-19T03:30:27.722Z,99877.16
2022-08-19T03:31:43.518Z,99873.91
2022-08-19T03:32:33.381Z,99875.31
2022-08-19T03:33:34.227Z,99877.52
2022-08-19T03:34:33.874Z,99877.52
2022-08-19T03:35:32.901Z,99880.5
2022-08-19T03:36:32.882Z,99876.25
2022-08-19T03:37:32.866Z,99879.2
2022-08-19T03:38:32.974Z,99879.33
2022-08-19T03:39:33.007Z,99885.18
2022-08-19T03:40:33.920Z,99880.95
2022-08-19T03:41:45.876Z,99880.17
2022-08-19T03:42:48.623Z,99881.54
2022-08-19T03:43:37.552Z,99885.36
2022-08-19T03:44:36.837Z,99884.64
2022-08-19T03:45:36.461Z,99883.52
2022-08-19T03:46:36.664Z,99884.54
2022-08-19T03:47:36.966Z,99883.34
2022-08-19T03:48:37.623Z,99887.05
2022-08-19T03:49:36.989Z,99886.86
2022-08-19T03:50:40.206Z,99890.84
2022-08-19T03:51:38.934Z,99889.47
2022-08-19T03:52:37.398Z,99886.52
2022-08-19T03:53:37.132Z,99885.86
2022-08-19T03:54:37.468Z,99887.81
2022-08-19T03:55:41.190Z,99892.67
2022-08-19T03:56:39.046Z,99889.66
2022-08-19T03:57:38.174Z,99894.42
2022-08-19T03:58:38.154Z,99896.38
2022-08-19T03:59:40.511Z,99893.32
2022-08-19T04:00:38.232Z,99895.02
2022-08-19T04:01:38.344Z,99892.83
2022-08-19T04:02:38.191Z,99895.41
2022-08-19T04:03:38.528Z,99895.89
2022-08-19T04:04:41.815Z,99894.87
2022-08-19T04:05:38.570Z,99895.89
2022-08-19T04:06:40.036Z,99898.18
2022-08-19T04:07:38.685Z,99897.72
2022-08-19T04:08:38.995Z,99899.25
2022-08-19T04:09:38.827Z,99902.5
2022-08-19T04:10:39.586Z,99900.73
2022-08-19T04:11:43.470Z,99902.8
2022-08-19T04:12:41.386Z,99900.59
2022-08-19T04:13:41.565Z,99904.38
2022-08-19T04:14:41.569Z,99905.33
2022-08-19T04:15:42.483Z,99907.86
2022-08-19T04:16:41.540Z,99905.93
2022-08-19T04:17:41.432Z,99907.56
2022-08-19T04:18:41.590Z,99908.5
2022-08-19T04:19:41.712Z,99908.38
2022-08-19T04:20:45.377Z,99906.59
2022-08-19T04:21:44.147Z,99910.1
2022-08-19T04:22:42.369Z,99909.07
2022-08-19T04:23:45.517Z,99911.26
2022-08-19T04:24:44.089Z,99912.08
2022-08-19T04:25:44.836Z,99916.23
2022-08-19T04:26:44.593Z,99913.4
2022-08-19T04:27:44.312Z,99914.84
2022-08-19T04:28:44.458Z,99916.73
2022-08-19T04:29:44.271Z,99920.95
2022-08-19T04:30:45.743Z,99919.65
2022-08-19T04:31:45.105Z,99917.86
2022-08-19T04:32:44.173Z,99918.98
2022-08-19T04:33:44.630Z,99917.91
2022-08-19T04:35:01.326Z,99917.76
2022-08-19T04:35:46.518Z,99918.56
2022-08-19T04:36:46.014Z,99920.36
2022-08-19T04:37:45.811Z,99919.85
2022-08-19T04:38:45.771Z,99923.61
2022-08-19T04:39:46.122Z,99921.05
2022-08-19T04:40:47.302Z,99920.22
2022-08-19T04:41:46.603Z,99918.42
2022-08-19T04:42:45.933Z,99919.34
2022-08-19T04:43:46.055Z,99919.3
2022-08-19T04:44:46.430Z,99918.64
2022-08-19T04:45:46.142Z,99917.34
2022-08-19T04:46:51.140Z,99918
2022-08-19T04:47:58.669Z,99923.16
2022-08-19T04:48:49.963Z,99918.16
2022-08-19T04:49:49.954Z,99918.12
2022-08-19T04:50:49.932Z,99922.33
2022-08-19T04:51:51.082Z,99923.23
2022-08-19T04:52:51.361Z,99926.52
2022-08-19T04:53:50.322Z,99924.32
2022-08-19T04:54:50.058Z,99926.91
2022-08-19T04:55:50.044Z,99928.59
2022-08-19T04:56:50.843Z,99928
2022-08-19T04:57:50.231Z,99930.55
2022-08-19T04:58:50.951Z,99932.59
2022-08-19T04:59:50.210Z,99931.29
2022-08-19T05:00:50.299Z,99929.81
2022-08-19T05:01:50.482Z,99932.66
2022-08-19T05:02:50.369Z,99934.33
2022-08-19T05:03:50.350Z,99933.91
2022-08-19T05:04:50.151Z,99937.16
2022-08-19T05:05:50.198Z,99936.06
2022-08-19T05:06:50.752Z,99935.42
2022-08-19T05:07:50.260Z,99934.35
2022-08-19T05:08:50.420Z,99939.86
2022-08-19T05:09:58.075Z,99939.34
2022-08-19T05:10:51.699Z,99940.69
2022-08-19T05:11:50.413Z,99941.03
2022-08-19T05:12:50.534Z,99942.08
2022-08-19T05:13:50.513Z,99945.53
2022-08-19T05:14:50.599Z,99941.95
2022-08-19T05:16:00.010Z,99945.61
2022-08-19T05:17:02.445Z,99942.52
2022-08-19T05:17:53.048Z,99941.86
2022-08-19T05:18:53.173Z,99943.64
2022-08-19T05:19:53.223Z,99951.12
2022-08-19T05:20:53.028Z,99949.5
2022-08-19T05:21:53.111Z,99947.84
2022-08-19T05:22:53.240Z,99951.52
2022-08-19T05:23:53.121Z,99953.8
2022-08-19T05:25:11.802Z,99951.46
2022-08-19T05:25:54.399Z,99950.68
2022-08-19T05:26:55.775Z,99954.59
2022-08-19T05:27:54.284Z,99953.16
2022-08-19T05:28:54.652Z,99959.12
2022-08-19T05:29:54.375Z,99957.55
2022-08-19T05:30:54.655Z,99956.23
2022-08-19T05:31:55.449Z,99958.51
2022-08-19T05:32:54.808Z,99957.78
2022-08-19T05:33:54.510Z,99959.48
2022-08-19T05:34:54.631Z,99962.21
2022-08-19T05:35:54.541Z,99962.7
2022-08-19T05:36:56.809Z,99965.96
2022-08-19T05:37:54.990Z,99967.02
2022-08-19T05:38:56.047Z,99968.34
2022-08-19T05:39:55.910Z,99970.45
2022-08-19T05:40:55.785Z,99972.57
2022-08-19T05:41:57.302Z,99971.9
2022-08-19T05:42:55.881Z,99972.02
2022-08-19T05:43:56.826Z,99974.88
2022-08-19T05:44:55.814Z,99971.01
2022-08-19T05:45:55.834Z,99973.75
2022-08-19T05:46:55.848Z,99972.75
2022-08-19T05:47:55.878Z,99969.61
2022-08-19T05:48:56.139Z,99970.51
2022-08-19T05:49:55.888Z,99974.83
2022-08-19T05:50:55.895Z,99969.87
2022-08-19T05:51:56.374Z,99974.59
2022-08-19T05:52:56.039Z,99969.88
2022-08-19T05:53:56.091Z,99972.09
2022-08-19T05:54:56.340Z,99968.47
2022-08-19T05:55:55.903Z,99969.13
2022-08-19T05:56:55.960Z,99970.5
2022-08-19T05:57:56.187Z,99968.46
2022-08-19T05:58:56.171Z,99971.71
2022-08-19T05:59:58.595Z,99972.17
2022-08-19T06:00:56.065Z,99967.88
2022-08-19T06:01:56.006Z,99967.64
2022-08-19T06:02:56.414Z,99967.12
2022-08-19T06:03:56.093Z,99966.88
2022-08-19T06:04:56.076Z,99969.08
2022-08-19T06:05:56.064Z,99972.33
2022-08-19T06:06:56.112Z,99969.44
2022-08-19T06:07:56.259Z,99966.89
2022-08-19T06:08:56.292Z,99971.42
2022-08-19T06:10:00.411Z,99969.33
2022-08-19T06:10:57.838Z,99971.64
2022-08-19T06:11:58.877Z,99972.5
2022-08-19T06:12:57.627Z,99971.48
2022-08-19T06:13:59.493Z,99971.4
2022-08-19T06:15:01.075Z,99970.66
2022-08-19T06:15:58.309Z,99974.39
2022-08-19T06:16:58.926Z,99970.91
2022-08-19T06:17:58.368Z,99974.14
2022-08-19T06:19:00.309Z,99973.04
2022-08-19T06:19:58.444Z,99976.83
2022-08-19T06:20:58.426Z,99977.16
2022-08-19T06:21:59.143Z,99979.45
2022-08-19T06:22:58.472Z,99976.91
2022-08-19T06:23:59.617Z,99982.72
2022-08-19T06:24:58.512Z,99982
2022-08-19T06:25:58.434Z,99981.31
2022-08-19T06:27:01.758Z,99978.61
2022-08-19T06:28:14.522Z,99980.81
2022-08-19T06:29:02.937Z,99981.73
2022-08-19T06:30:02.842Z,99984.45
2022-08-19T06:31:06.472Z,99985.19
2022-08-19T06:32:04.062Z,99989
2022-08-19T06:33:03.588Z,99989.16
2022-08-19T06:34:04.698Z,99990.77
2022-08-19T06:35:03.611Z,99995.43
2022-08-19T06:36:03.744Z,99990.17
2022-08-19T06:37:03.488Z,99995.17
2022-08-19T06:38:03.534Z,99998.89
2022-08-19T06:39:07.126Z,100000.32
2022-08-19T06:40:04.654Z,99997.23
2022-08-19T06:41:07.645Z,100001.05
2022-08-19T06:42:06.046Z,99999.09
2022-08-19T06:43:05.658Z,99999.62
2022-08-19T06:44:06.835Z,100004.44
2022-08-19T06:45:10.421Z,100000.68
2022-08-19T06:46:11.313Z,100001.94
2022-08-19T06:47:14.746Z,100006.22
2022-08-19T06:48:15.264Z,100006.47
2022-08-19T06:49:15.213Z,100009.51
2022-08-19T06:50:15.266Z,100010.77
2022-08-19T06:51:19.227Z,100010.26
2022-08-19T06:52:16.419Z,100009.59
2022-08-19T06:53:16.509Z,100009.33
2022-08-19T06:54:19.247Z,100009.77
2022-08-19T06:55:16.826Z,100008.92
2022-08-19T06:56:17.734Z,100011.13
2022-08-19T06:57:16.833Z,100007.46
2022-08-19T06:58:16.829Z,100009.43
2022-08-19T06:59:18.391Z,100008.91
2022-08-19T07:00:17.247Z,100007.58
2022-08-19T07:01:16.847Z,100009.78
2022-08-19T07:03:17.501Z,100007.62
2022-08-19T07:04:18.221Z,100010.46
2022-08-19T07:05:16.932Z,100010.72
2022-08-19T07:06:43.100Z,100008.42
2022-08-19T07:07:21.399Z,100013.77
2022-08-19T07:08:19.763Z,100012.26
2022-08-19T07:09:19.637Z,100015.28
2022-08-19T07:10:19.659Z,100017.33
2022-08-19T07:11:19.927Z,100014.17
2022-08-19T07:12:19.817Z,100016.38
2022-08-19T07:13:19.748Z,100010.23
2022-08-19T07:14:20.981Z,100010.56
2022-08-19T07:15:19.967Z,100011
2022-08-19T07:16:20.424Z,100011.36
2022-08-19T07:17:20.481Z,100009.32
2022-08-19T07:18:21.358Z,100011.02
2022-08-19T07:19:20.708Z,100012.84
2022-08-19T07:20:20.434Z,100013.4
2022-08-19T07:21:22.476Z,100012.14
2022-08-19T07:22:20.608Z,100014.95
2022-08-19T07:23:20.508Z,100013.06
2022-08-19T07:24:21.355Z,100012.97
2022-08-19T07:25:20.655Z,100010.59
2022-08-19T07:26:27.862Z,100011.97
2022-08-19T07:27:25.425Z,100011.23
2022-08-19T07:28:25.161Z,100004.84
2022-08-19T07:29:25.765Z,100008.84
2022-08-19T07:30:26.297Z,100003.59
2022-08-19T07:31:26.187Z,100004.52
2022-08-19T07:32:27.729Z,100005.52
2022-08-19T07:33:27.826Z,100002.56
2022-08-19T07:34:28.954Z,100005.06
2022-08-19T07:35:27.588Z,100005.58
2022-08-19T07:36:28.810Z,100004.14
2022-08-19T07:37:32.373Z,100007.05
2022-08-19T07:38:29.438Z,100008.91
2022-08-19T07:39:30.965Z,100003.14
2022-08-19T07:40:29.757Z,100010.91
2022-08-19T07:41:30.038Z,100010.45
2022-08-19T07:42:29.518Z,100007.94
2022-08-19T07:43:34.738Z,100010.29
2022-08-19T07:44:31.851Z,100008.98
2022-08-19T07:45:31.861Z,100010.28
2022-08-19T07:46:32.525Z,100004.89
2022-08-19T07:47:50.424Z,100010.42
2022-08-19T07:48:33.360Z,100006.97
2022-08-19T07:49:32.740Z,100002.34
2022-08-19T07:50:32.929Z,100009.62
2022-08-19T07:51:37.034Z,100005.17
2022-08-19T07:52:33.819Z,100009.12
2022-08-19T07:53:36.707Z,100005.02
2022-08-19T07:54:40.697Z,100008.28
2022-08-19T07:55:43.564Z,100006.3
2022-08-19T07:56:40.742Z,100007.97
2022-08-19T07:57:40.638Z,100008.55
2022-08-19T07:58:42.047Z,100007.39
2022-08-19T07:59:40.721Z,100005.5
2022-08-19T08:00:40.845Z,100006.83
2022-08-19T08:01:41.490Z,100005.02
2022-08-19T08:02:40.791Z,100004.02
2022-08-19T08:03:41.440Z,100002.02
2022-08-19T08:04:40.721Z,100001.59
2022-08-19T08:05:43.678Z,100004.08
2022-08-19T08:06:40.875Z,100009.57
2022-08-19T08:07:40.975Z,100008.3
2022-08-19T08:08:43.887Z,100008.72
2022-08-19T08:09:44.063Z,100009.19
2022-08-19T08:10:52.976Z,100008.42
2022-08-19T08:11:48.649Z,100011.45
2022-08-19T08:12:52.621Z,100012.91
2022-08-19T08:13:48.542Z,100008.65
2022-08-19T08:14:50.728Z,100008.21
2022-08-19T08:15:53.008Z,100014.54
2022-08-19T08:16:53.325Z,100007.8
2022-08-19T08:17:53.090Z,100014.2
2022-08-19T08:18:53.318Z,100011.09
2022-08-19T08:19:53.424Z,100011.23
2022-08-19T08:20:53.002Z,100016.48
2022-08-19T08:21:54.107Z,100015.64
2022-08-19T08:22:53.256Z,100018.45
2022-08-19T08:23:54.506Z,100017.57
2022-08-19T08:24:53.083Z,100017.23
2022-08-19T08:25:54.297Z,100019.2
2022-08-19T08:26:57.610Z,100021.44
2022-08-19T08:27:55.336Z,100024.37
2022-08-19T08:28:55.237Z,100021
2022-08-19T08:29:54.990Z,100022.15
2022-08-19T08:30:54.927Z,100023.69
2022-08-19T08:31:58.490Z,100023.44
2022-08-19T08:32:57.390Z,100025.83
2022-08-19T08:33:57.245Z,100028.36
2022-08-19T08:34:57.326Z,100019.94
2022-08-19T08:35:57.704Z,100021.64
2022-08-19T08:36:57.308Z,100018.58
2022-08-19T08:37:57.674Z,100020.58
2022-08-19T08:39:57.476Z,100021.72
2022-08-19T08:41:10.283Z,100020.27
2022-08-19T08:42:17.567Z,100022.88
2022-08-19T08:43:11.334Z,100017.06
2022-08-19T08:44:17.148Z,100023.23
2022-08-19T08:45:13.860Z,100022.52
2022-08-19T08:46:30.435Z,100023.39
2022-08-19T08:47:16.415Z,100023.35
2022-08-19T08:53:29.590Z,100028.71
2022-08-19T08:54:34.954Z,100029.27
2022-08-19T08:55:37.068Z,100030.31
2022-08-19T08:56:34.375Z,100033.34
2022-08-19T08:59:41.381Z,100027.48
2022-08-19T09:00:43.764Z,100035.59
2022-08-19T09:01:40.368Z,100034.64
2022-08-19T09:02:40.273Z,100031.23
2022-08-19T09:03:42.960Z,100031.42
2022-08-19T09:04:40.351Z,100030.98
2022-08-19T09:11:05.452Z,100028.54
2022-08-19T09:15:10.813Z,100029.23
2022-08-19T09:17:13.100Z,100024.66
2022-08-19T09:18:15.349Z,100029.62
2022-08-19T09:19:16.101Z,100030.58
2022-08-19T09:20:20.474Z,100025.97
2022-08-19T09:21:22.911Z,100021
2022-08-19T09:22:25.804Z,100022.97
2022-08-19T09:23:26.629Z,100024
2022-08-19T09:24:23.932Z,100023.05
2022-08-19T09:25:29.533Z,100027.49
2022-08-19T09:26:35.258Z,100028.43
2022-08-19T09:27:43.117Z,100024.95
2022-08-19T09:28:31.828Z,100029.78
2022-08-19T09:29:30.843Z,100027.98
2022-08-19T09:30:35.279Z,100029.53
2022-08-19T09:31:32.619Z,100031.3
2022-08-19T09:32:32.501Z,100032.02
2022-08-19T09:33:32.218Z,100033.89
2022-08-19T09:34:32.959Z,100034.33
2022-08-19T09:35:50.004Z,100030.2
2022-08-19T09:36:35.029Z,100032.05
2022-08-19T09:37:35.070Z,100033.26
2022-08-19T09:38:35.309Z,100033.26
2022-08-19T09:39:35.855Z,100028.21
2022-08-19T09:40:38.247Z,100024.77
2022-08-19T09:41:35.072Z,100028.2
2022-08-19T09:42:35.409Z,100028.08
2022-08-19T09:43:44.276Z,100026.41
2022-08-19T09:44:37.120Z,100019.05
2022-08-19T09:45:37.199Z,100027.4
2022-08-19T09:46:37.205Z,100026.94
2022-08-19T09:47:37.703Z,100025.63
2022-08-19T09:48:37.842Z,100027.04
2022-08-19T09:49:37.136Z,100026.2
2022-08-19T09:50:37.206Z,100022.97
2022-08-19T09:51:37.408Z,100027.83
2022-08-19T09:52:37.995Z,100020.62
2022-08-19T09:53:38.277Z,100025.25
2022-08-19T09:54:37.598Z,100028.84
2022-08-19T09:55:42.634Z,100020.61
2022-08-19T09:56:39.093Z,100025.98
2022-08-19T09:57:39.735Z,100025.84
2022-08-19T09:58:39.205Z,100022.94
2022-08-19T09:59:40.211Z,100020.82
2022-08-19T10:00:39.197Z,100027.12
2022-08-19T10:01:39.710Z,100028.91
2022-08-19T10:02:39.285Z,100025.91
2022-08-19T10:03:39.293Z,100028.77
2022-08-19T10:04:39.266Z,100028.98
2022-08-19T10:05:42.334Z,100029.8
2022-08-19T10:06:45.931Z,100033.62
2022-08-19T10:07:43.801Z,100029.97
2022-08-19T10:08:50.455Z,100030.67
2022-08-19T10:09:47.237Z,100026.17
2022-08-19T10:10:47.978Z,100030.58
2022-08-19T10:11:54.579Z,100025.84
2022-08-19T10:12:51.851Z,100024.59
2022-08-19T10:13:51.565Z,100025.22
2022-08-19T10:14:51.544Z,100029.18
2022-08-19T10:15:52.662Z,100021.36
2022-08-19T10:16:51.880Z,100026.53
2022-08-19T10:17:55.387Z,100024.61
2022-08-19T10:18:53.325Z,100017.13
2022-08-19T10:19:56.138Z,100020.27
2022-08-19T10:21:04.437Z,100020.56
2022-08-19T10:22:00.331Z,100017.44
2022-08-19T10:22:57.175Z,100017.31
2022-08-19T10:23:58.329Z,100016.38
2022-08-19T10:24:57.151Z,100017.42
2022-08-19T10:26:00.502Z,100021.26
2022-08-19T10:26:59.832Z,100018.05
2022-08-19T10:27:57.218Z,100019.78
2022-08-19T10:28:57.948Z,100014.9
2022-08-19T10:29:57.241Z,100016.11
2022-08-19T10:30:57.316Z,100013.47
2022-08-19T10:32:02.339Z,100015.6
2022-08-19T10:32:59.585Z,100014.55
2022-08-19T10:34:00.221Z,100008.98
2022-08-19T10:34:59.598Z,100015.66
2022-08-19T10:36:00.648Z,100013.73
2022-08-19T10:37:00.856Z,100012.62
2022-08-19T10:38:01.935Z,100012.47
2022-08-19T10:39:01.032Z,100011.78
2022-08-19T10:39:59.794Z,100013.55
2022-08-19T10:41:07.029Z,100014.98
2022-08-19T10:42:07.624Z,100018.07
2022-08-19T10:43:04.051Z,100013.87
2022-08-19T10:44:08.652Z,100008.12
2022-08-19T10:45:05.683Z,100006.28
2022-08-19T10:46:09.617Z,100005.7
2022-08-19T10:47:17.766Z,100010.48
2022-08-19T10:48:07.499Z,100005.3
2022-08-19T10:49:09.676Z,100003.86
2022-08-19T10:50:08.898Z,100003.23
2022-08-19T10:51:09.185Z,100003.09
2022-08-19T10:52:10.300Z,100001.61
2022-08-19T10:53:09.879Z,100003.23
2022-08-19T10:54:12.694Z,99999.87
2022-08-19T10:55:09.400Z,99999.02
2022-08-19T10:56:09.355Z,100001.2
2022-08-19T10:57:09.383Z,99998.64
2022-08-19T10:59:13.308Z,100002
2022-08-19T11:00:13.333Z,100000.83
2022-08-19T11:01:12.966Z,100002.05
2022-08-19T11:02:12.975Z,99997.78
2022-08-19T11:03:13.127Z,99994.62
2022-08-19T11:04:13.112Z,99995.91
2022-08-19T11:05:13.688Z,99992
2022-08-19T11:06:13.007Z,99996.79
2022-08-19T11:07:13.081Z,99996.45
2022-08-19T11:08:23.263Z,99996.16
2022-08-19T11:09:19.475Z,99995.67
2022-08-19T11:10:20.920Z,99995.17
2022-08-19T11:11:18.080Z,99999.16
2022-08-19T11:12:17.962Z,99992.88
2022-08-19T11:13:17.919Z,99992.94
2022-08-19T11:14:19.154Z,99989.39
2022-08-19T11:15:18.143Z,99996.86
2022-08-19T11:16:19.435Z,100003.06
2022-08-19T11:17:17.924Z,99997.09
2022-08-19T11:18:17.980Z,99997.86
2022-08-19T11:19:18.543Z,99999.02
2022-08-19T11:20:18.287Z,99995.31
2022-08-19T11:21:20.014Z,100001.55
2022-08-19T11:22:19.471Z,100004.33
2022-08-19T11:23:18.093Z,100003.32
2022-08-19T11:24:19.563Z,100000.25
2022-08-19T11:25:18.293Z,100001.12
2022-08-19T11:26:18.640Z,100001.25
2022-08-19T11:27:18.052Z,99997.98
2022-08-19T11:28:18.154Z,99996.92
2022-08-19T11:29:19.626Z,99999.8
2022-08-19T11:30:18.191Z,99998.38
2022-08-19T11:31:19.772Z,99995.82
2022-08-19T11:32:18.246Z,99997.98
2022-08-19T11:33:18.231Z,99997.28
2022-08-19T11:34:23.262Z,99998.25
2022-08-19T11:35:20.002Z,100005.07
2022-08-19T11:36:20.545Z,99998.42
2022-08-19T11:37:19.749Z,99991.41
2022-08-19T11:38:19.812Z,99998
2022-08-19T11:39:21.588Z,99996.71
2022-08-19T11:40:20.157Z,100001.38
2022-08-19T11:41:20.663Z,100003.09
2022-08-19T11:42:19.860Z,99999.41
2022-08-19T11:43:19.810Z,100001.52
2022-08-19T11:44:19.940Z,99995.29
2022-08-19T11:45:19.901Z,99998.14
2022-08-19T11:46:19.985Z,99995.46
2022-08-19T11:47:20.413Z,99993.23
2022-08-19T11:48:20.102Z,99990.67
2022-08-19T11:49:21.129Z,99991.36
2022-08-19T11:50:20.587Z,99991.16
2022-08-19T11:51:21.494Z,99987.98
2022-08-19T11:52:20.057Z,99992.62
2022-08-19T11:53:20.604Z,99988.88
2022-08-19T11:54:20.029Z,99982.83
2022-08-19T11:55:20.064Z,99982.36
2022-08-19T11:56:20.428Z,99977.23
2022-08-19T11:57:20.222Z,99980.44
2022-08-19T11:58:20.201Z,99977.97
2022-08-19T11:59:20.178Z,99969.34
2022-08-19T12:00:20.355Z,99970
2022-08-19T12:01:22.110Z,99971.55
2022-08-19T12:02:20.570Z,99966.27
2022-08-19T12:03:20.253Z,99959.55
2022-08-19T12:04:20.427Z,99968.56
2022-08-19T12:05:20.268Z,99969.53
2022-08-19T12:06:22.251Z,99967.71